sensor_id;sensor_type;location;lat;lon;timestamp;P1;durP1;ratioP1;P2;durP2;ratioP2
20095;SDS011;10207;50.942;6.900;2023-02-10T00:01:44;47.47;;;27.03;;
20095;SDS011;10207;50.942;6.900;2023-02-10T00:04:11;50.70;;;26.58;;
20095;SDS011;10207;50.942;6.900;2023-02-10T00:06:37;48.15;;;25.90;;
20095;SDS011;10207;50.942;6.900;2023-02-10T00:09:03;54.67;;;26.33;;
20095;SDS011;10207;50.942;6.900;2023-02-10T00:11:29;44.35;;;24.90;;
20095;SDS011;10207;50.942;6.900;2023-02-10T00:14:14;49.33;;;26.50;;
20095;SDS011;10207;50.942;6.900;2023-02-10T00:16:40;52.08;;;26.35;;
20095;SDS011;10207;50.942;6.900;2023-02-10T00:19:06;48.20;;;26.03;;
20095;SDS011;10207;50.942;6.900;2023-02-10T00:21:32;50.17;;;26.13;;
20095;SDS011;10207;50.942;6.900;2023-02-10T00:23:58;49.45;;;26.30;;
20095;SDS011;10207;50.942;6.900;2023-02-10T00:26:24;47.83;;;25.57;;
20095;SDS011;10207;50.942;6.900;2023-02-10T00:28:51;51.10;;;28.10;;
20095;SDS011;10207;50.942;6.900;2023-02-10T00:31:18;44.77;;;25.43;;
20095;SDS011;10207;50.942;6.900;2023-02-10T00:33:45;47.83;;;26.08;;
20095;SDS011;10207;50.942;6.900;2023-02-10T00:36:12;52.40;;;25.65;;
20095;SDS011;10207;50.942;6.900;2023-02-10T00:38:39;51.60;;;24.65;;
20095;SDS011;10207;50.942;6.900;2023-02-10T00:41:05;48.17;;;24.98;;
20095;SDS011;10207;50.942;6.900;2023-02-10T00:43:32;44.37;;;24.73;;
20095;SDS011;10207;50.942;6.900;2023-02-10T00:45:58;52.78;;;24.58;;
20095;SDS011;10207;50.942;6.900;2023-02-10T00:48:24;51.42;;;26.27;;
20095;SDS011;10207;50.942;6.900;2023-02-10T00:50:50;45.73;;;24.73;;
20095;SDS011;10207;50.942;6.900;2023-02-10T00:53:16;47.45;;;25.23;;
20095;SDS011;10207;50.942;6.900;2023-02-10T00:55:42;47.30;;;25.98;;
20095;SDS011;10207;50.942;6.900;2023-02-10T00:58:08;50.53;;;26.30;;
20095;SDS011;10207;50.942;6.900;2023-02-10T01:00:34;44.75;;;25.35;;
20095;SDS011;10207;50.942;6.900;2023-02-10T01:03:00;51.42;;;25.42;;
20095;SDS011;10207;50.942;6.900;2023-02-10T01:05:26;42.40;;;23.67;;
20095;SDS011;10207;50.942;6.900;2023-02-10T01:07:52;47.93;;;25.93;;
20095;SDS011;10207;50.942;6.900;2023-02-10T01:10:19;51.25;;;24.85;;
20095;SDS011;10207;50.942;6.900;2023-02-10T01:12:45;44.25;;;24.08;;
20095;SDS011;10207;50.942;6.900;2023-02-10T01:15:11;41.75;;;24.58;;
20095;SDS011;10207;50.942;6.900;2023-02-10T01:17:37;50.72;;;23.73;;
20095;SDS011;10207;50.942;6.900;2023-02-10T01:20:04;48.53;;;24.95;;
20095;SDS011;10207;50.942;6.900;2023-02-10T01:22:34;50.88;;;25.02;;
20095;SDS011;10207;50.942;6.900;2023-02-10T01:25:00;47.73;;;24.83;;
20095;SDS011;10207;50.942;6.900;2023-02-10T01:27:26;48.40;;;25.07;;
20095;SDS011;10207;50.942;6.900;2023-02-10T01:29:52;50.87;;;26.07;;
20095;SDS011;10207;50.942;6.900;2023-02-10T01:32:18;50.30;;;26.77;;
20095;SDS011;10207;50.942;6.900;2023-02-10T01:34:44;45.78;;;24.52;;
20095;SDS011;10207;50.942;6.900;2023-02-10T01:37:11;54.88;;;25.52;;
20095;SDS011;10207;50.942;6.900;2023-02-10T01:39:36;49.28;;;25.90;;
20095;SDS011;10207;50.942;6.900;2023-02-10T01:42:03;54.63;;;27.90;;
20095;SDS011;10207;50.942;6.900;2023-02-10T01:46:55;54.63;;;27.60;;
20095;SDS011;10207;50.942;6.900;2023-02-10T01:49:23;51.35;;;25.85;;
20095;SDS011;10207;50.942;6.900;2023-02-10T01:51:54;50.55;;;26.13;;
20095;SDS011;10207;50.942;6.900;2023-02-10T01:54:26;47.83;;;23.87;;
20095;SDS011;10207;50.942;6.900;2023-02-10T01:56:52;52.00;;;25.38;;
20095;SDS011;10207;50.942;6.900;2023-02-10T01:59:19;46.63;;;24.17;;
20095;SDS011;10207;50.942;6.900;2023-02-10T02:01:45;47.45;;;24.60;;
20095;SDS011;10207;50.942;6.900;2023-02-10T02:04:11;50.65;;;24.77;;
20095;SDS011;10207;50.942;6.900;2023-02-10T02:06:38;49.05;;;25.60;;
20095;SDS011;10207;50.942;6.900;2023-02-10T02:09:04;53.75;;;24.58;;
20095;SDS011;10207;50.942;6.900;2023-02-10T02:21:54;56.03;;;25.53;;
20095;SDS011;10207;50.942;6.900;2023-02-10T02:24:26;49.53;;;24.23;;
20095;SDS011;10207;50.942;6.900;2023-02-10T02:32:20;48.72;;;25.02;;
20095;SDS011;10207;50.942;6.900;2023-02-10T02:37:17;57.07;;;26.30;;
20095;SDS011;10207;50.942;6.900;2023-02-10T02:39:48;53.35;;;27.30;;
20095;SDS011;10207;50.942;6.900;2023-02-10T02:42:15;52.50;;;26.70;;
20095;SDS011;10207;50.942;6.900;2023-02-10T02:44:49;48.75;;;26.67;;
20095;SDS011;10207;50.942;6.900;2023-02-10T02:52:33;54.45;;;25.60;;
20095;SDS011;10207;50.942;6.900;2023-02-10T02:55:05;54.42;;;26.10;;
20095;SDS011;10207;50.942;6.900;2023-02-10T02:57:40;49.47;;;25.88;;
20095;SDS011;10207;50.942;6.900;2023-02-10T03:00:15;59.33;;;26.48;;
20095;SDS011;10207;50.942;6.900;2023-02-10T03:02:42;52.65;;;26.90;;
20095;SDS011;10207;50.942;6.900;2023-02-10T03:05:11;58.45;;;26.60;;
20095;SDS011;10207;50.942;6.900;2023-02-10T03:07:42;48.20;;;25.23;;
20095;SDS011;10207;50.942;6.900;2023-02-10T03:10:08;48.28;;;24.13;;
20095;SDS011;10207;50.942;6.900;2023-02-10T03:12:34;45.67;;;25.63;;
20095;SDS011;10207;50.942;6.900;2023-02-10T03:15:00;46.63;;;24.45;;
20095;SDS011;10207;50.942;6.900;2023-02-10T03:17:26;51.92;;;24.45;;
20095;SDS011;10207;50.942;6.900;2023-02-10T03:19:52;47.15;;;23.92;;
20095;SDS011;10207;50.942;6.900;2023-02-10T03:22:18;50.53;;;26.40;;
20095;SDS011;10207;50.942;6.900;2023-02-10T03:24:44;56.78;;;26.85;;
20095;SDS011;10207;50.942;6.900;2023-02-10T03:27:10;51.35;;;26.20;;
20095;SDS011;10207;50.942;6.900;2023-02-10T03:29:36;49.28;;;26.38;;
20095;SDS011;10207;50.942;6.900;2023-02-10T03:32:02;54.75;;;26.38;;
20095;SDS011;10207;50.942;6.900;2023-02-10T03:34:31;48.95;;;25.10;;
20095;SDS011;10207;50.942;6.900;2023-02-10T03:36:57;52.28;;;25.90;;
20095;SDS011;10207;50.942;6.900;2023-02-10T03:39:22;53.22;;;26.50;;
20095;SDS011;10207;50.942;6.900;2023-02-10T03:41:48;50.08;;;26.27;;
20095;SDS011;10207;50.942;6.900;2023-02-10T03:44:14;55.75;;;28.10;;
20095;SDS011;10207;50.942;6.900;2023-02-10T03:46:40;55.78;;;26.17;;
20095;SDS011;10207;50.942;6.900;2023-02-10T03:49:06;50.58;;;25.83;;
20095;SDS011;10207;50.942;6.900;2023-02-10T03:51:32;53.13;;;26.95;;
20095;SDS011;10207;50.942;6.900;2023-02-10T03:53:58;55.15;;;28.10;;
20095;SDS011;10207;50.942;6.900;2023-02-10T03:56:24;55.53;;;27.08;;
20095;SDS011;10207;50.942;6.900;2023-02-10T03:58:50;50.53;;;27.15;;
20095;SDS011;10207;50.942;6.900;2023-02-10T04:01:16;54.17;;;28.33;;
20095;SDS011;10207;50.942;6.900;2023-02-10T04:03:43;60.60;;;27.50;;
20095;SDS011;10207;50.942;6.900;2023-02-10T04:06:09;56.65;;;27.02;;
20095;SDS011;10207;50.942;6.900;2023-02-10T04:08:35;48.78;;;25.90;;
20095;SDS011;10207;50.942;6.900;2023-02-10T04:11:02;49.03;;;27.02;;
20095;SDS011;10207;50.942;6.900;2023-02-10T04:13:28;62.97;;;28.27;;
20095;SDS011;10207;50.942;6.900;2023-02-10T04:16:01;61.77;;;29.33;;
20095;SDS011;10207;50.942;6.900;2023-02-10T04:18:27;58.10;;;27.43;;
20095;SDS011;10207;50.942;6.900;2023-02-10T04:20:53;56.17;;;28.27;;
20095;SDS011;10207;50.942;6.900;2023-02-10T04:23:19;61.65;;;29.85;;
20095;SDS011;10207;50.942;6.900;2023-02-10T04:25:45;71.40;;;30.90;;
20095;SDS011;10207;50.942;6.900;2023-02-10T04:28:11;66.63;;;31.70;;
20095;SDS011;10207;50.942;6.900;2023-02-10T04:30:37;74.83;;;31.70;;
20095;SDS011;10207;50.942;6.900;2023-02-10T04:33:03;72.43;;;33.47;;
20095;SDS011;10207;50.942;6.900;2023-02-10T04:35:29;73.00;;;33.03;;
20095;SDS011;10207;50.942;6.900;2023-02-10T04:37:55;97.93;;;35.73;;
20095;SDS011;10207;50.942;6.900;2023-02-10T04:40:21;91.30;;;35.97;;
20095;SDS011;10207;50.942;6.900;2023-02-10T04:42:47;83.33;;;36.07;;
20095;SDS011;10207;50.942;6.900;2023-02-10T04:45:13;79.20;;;34.33;;
20095;SDS011;10207;50.942;6.900;2023-02-10T04:47:39;88.90;;;36.90;;
20095;SDS011;10207;50.942;6.900;2023-02-10T04:50:05;91.50;;;36.87;;
20095;SDS011;10207;50.942;6.900;2023-02-10T04:52:31;88.63;;;35.03;;
20095;SDS011;10207;50.942;6.900;2023-02-10T04:54:57;89.47;;;39.37;;
20095;SDS011;10207;50.942;6.900;2023-02-10T04:57:23;96.53;;;40.07;;
20095;SDS011;10207;50.942;6.900;2023-02-10T04:59:49;101.10;;;38.80;;
20095;SDS011;10207;50.942;6.900;2023-02-10T05:02:15;93.00;;;38.00;;
20095;SDS011;10207;50.942;6.900;2023-02-10T05:04:41;84.33;;;36.30;;
20095;SDS011;10207;50.942;6.900;2023-02-10T05:07:06;91.40;;;38.23;;
20095;SDS011;10207;50.942;6.900;2023-02-10T05:09:32;90.93;;;39.53;;
20095;SDS011;10207;50.942;6.900;2023-02-10T05:11:58;82.10;;;37.13;;
20095;SDS011;10207;50.942;6.900;2023-02-10T05:14:24;79.93;;;36.53;;
20095;SDS011;10207;50.942;6.900;2023-02-10T05:16:50;83.27;;;36.60;;
20095;SDS011;10207;50.942;6.900;2023-02-10T05:19:16;73.87;;;34.40;;
20095;SDS011;10207;50.942;6.900;2023-02-10T05:21:42;77.67;;;34.43;;
20095;SDS011;10207;50.942;6.900;2023-02-10T05:24:08;81.27;;;37.40;;
20095;SDS011;10207;50.942;6.900;2023-02-10T05:26:34;84.27;;;35.10;;
20095;SDS011;10207;50.942;6.900;2023-02-10T05:29:00;80.80;;;37.07;;
20095;SDS011;10207;50.942;6.900;2023-02-10T05:31:25;84.90;;;37.20;;
20095;SDS011;10207;50.942;6.900;2023-02-10T05:33:51;92.57;;;36.60;;
20095;SDS011;10207;50.942;6.900;2023-02-10T05:36:19;84.60;;;37.57;;
20095;SDS011;10207;50.942;6.900;2023-02-10T05:38:45;82.17;;;35.87;;
20095;SDS011;10207;50.942;6.900;2023-02-10T05:41:31;85.33;;;36.67;;
20095;SDS011;10207;50.942;6.900;2023-02-10T05:43:57;87.60;;;37.83;;
20095;SDS011;10207;50.942;6.900;2023-02-10T05:46:23;91.23;;;38.50;;
20095;SDS011;10207;50.942;6.900;2023-02-10T05:48:49;78.80;;;35.50;;
20095;SDS011;10207;50.942;6.900;2023-02-10T05:51:15;92.93;;;36.33;;
20095;SDS011;10207;50.942;6.900;2023-02-10T05:53:41;80.53;;;35.77;;
20095;SDS011;10207;50.942;6.900;2023-02-10T05:56:07;80.10;;;36.53;;
20095;SDS011;10207;50.942;6.900;2023-02-10T05:58:33;89.57;;;37.57;;
20095;SDS011;10207;50.942;6.900;2023-02-10T06:00:59;82.77;;;35.67;;
20095;SDS011;10207;50.942;6.900;2023-02-10T06:03:25;87.83;;;34.83;;
20095;SDS011;10207;50.942;6.900;2023-02-10T06:05:51;84.07;;;36.13;;
20095;SDS011;10207;50.942;6.900;2023-02-10T06:08:17;88.67;;;37.67;;
20095;SDS011;10207;50.942;6.900;2023-02-10T06:10:43;98.23;;;38.07;;
20095;SDS011;10207;50.942;6.900;2023-02-10T06:13:09;90.40;;;35.43;;
20095;SDS011;10207;50.942;6.900;2023-02-10T06:15:35;84.77;;;35.00;;
20095;SDS011;10207;50.942;6.900;2023-02-10T06:18:01;88.33;;;36.73;;
20095;SDS011;10207;50.942;6.900;2023-02-10T06:20:27;93.47;;;36.73;;
20095;SDS011;10207;50.942;6.900;2023-02-10T06:22:53;86.37;;;37.17;;
20095;SDS011;10207;50.942;6.900;2023-02-10T06:25:18;94.40;;;38.27;;
20095;SDS011;10207;50.942;6.900;2023-02-10T06:27:44;83.37;;;37.83;;
20095;SDS011;10207;50.942;6.900;2023-02-10T06:30:11;105.13;;;37.40;;
20095;SDS011;10207;50.942;6.900;2023-02-10T06:32:37;103.43;;;37.37;;
20095;SDS011;10207;50.942;6.900;2023-02-10T06:35:03;89.97;;;38.40;;
20095;SDS011;10207;50.942;6.900;2023-02-10T06:37:29;100.20;;;36.67;;
20095;SDS011;10207;50.942;6.900;2023-02-10T06:39:55;83.03;;;35.13;;
20095;SDS011;10207;50.942;6.900;2023-02-10T06:42:21;83.43;;;37.10;;
20095;SDS011;10207;50.942;6.900;2023-02-10T06:44:47;91.00;;;36.87;;
20095;SDS011;10207;50.942;6.900;2023-02-10T06:47:13;89.23;;;36.77;;
20095;SDS011;10207;50.942;6.900;2023-02-10T06:49:39;90.83;;;36.67;;
20095;SDS011;10207;50.942;6.900;2023-02-10T06:52:05;86.20;;;34.30;;
20095;SDS011;10207;50.942;6.900;2023-02-10T06:54:31;94.20;;;39.10;;
20095;SDS011;10207;50.942;6.900;2023-02-10T06:56:57;86.33;;;34.50;;
20095;SDS011;10207;50.942;6.900;2023-02-10T06:59:23;97.33;;;38.10;;
20095;SDS011;10207;50.942;6.900;2023-02-10T07:01:49;85.63;;;36.53;;
20095;SDS011;10207;50.942;6.900;2023-02-10T07:04:14;95.70;;;37.50;;
20095;SDS011;10207;50.942;6.900;2023-02-10T07:06:40;89.63;;;37.00;;
20095;SDS011;10207;50.942;6.900;2023-02-10T07:09:06;98.83;;;39.03;;
20095;SDS011;10207;50.942;6.900;2023-02-10T07:11:33;90.80;;;37.73;;
20095;SDS011;10207;50.942;6.900;2023-02-10T07:13:59;93.13;;;38.07;;
20095;SDS011;10207;50.942;6.900;2023-02-10T07:16:25;82.90;;;35.17;;
20095;SDS011;10207;50.942;6.900;2023-02-10T07:18:50;89.70;;;35.97;;
20095;SDS011;10207;50.942;6.900;2023-02-10T07:21:16;93.20;;;36.83;;
20095;SDS011;10207;50.942;6.900;2023-02-10T07:23:42;92.23;;;37.33;;
20095;SDS011;10207;50.942;6.900;2023-02-10T07:26:08;86.57;;;36.27;;
20095;SDS011;10207;50.942;6.900;2023-02-10T07:28:36;97.90;;;38.87;;
20095;SDS011;10207;50.942;6.900;2023-02-10T07:31:02;86.13;;;36.30;;
20095;SDS011;10207;50.942;6.900;2023-02-10T07:33:28;98.67;;;37.33;;
20095;SDS011;10207;50.942;6.900;2023-02-10T07:35:54;90.40;;;35.77;;
20095;SDS011;10207;50.942;6.900;2023-02-10T07:38:20;88.47;;;35.77;;
20095;SDS011;10207;50.942;6.900;2023-02-10T07:40:47;71.33;;;32.47;;
20095;SDS011;10207;50.942;6.900;2023-02-10T07:43:13;66.17;;;31.50;;
20095;SDS011;10207;50.942;6.900;2023-02-10T07:45:44;72.77;;;34.63;;
20095;SDS011;10207;50.942;6.900;2023-02-10T07:48:10;77.17;;;32.73;;
20095;SDS011;10207;50.942;6.900;2023-02-10T07:50:36;72.97;;;31.23;;
20095;SDS011;10207;50.942;6.900;2023-02-10T07:53:02;69.47;;;30.33;;
20095;SDS011;10207;50.942;6.900;2023-02-10T07:55:28;72.03;;;31.03;;
20095;SDS011;10207;50.942;6.900;2023-02-10T07:57:54;60.17;;;28.37;;
20095;SDS011;10207;50.942;6.900;2023-02-10T08:00:20;74.10;;;32.40;;
20095;SDS011;10207;50.942;6.900;2023-02-10T08:02:46;65.10;;;29.50;;
20095;SDS011;10207;50.942;6.900;2023-02-10T08:05:12;72.03;;;29.60;;
20095;SDS011;10207;50.942;6.900;2023-02-10T08:07:38;64.90;;;30.93;;
20095;SDS011;10207;50.942;6.900;2023-02-10T08:10:05;66.93;;;29.73;;
20095;SDS011;10207;50.942;6.900;2023-02-10T08:12:31;67.80;;;26.60;;
20095;SDS011;10207;50.942;6.900;2023-02-10T08:14:58;69.30;;;30.33;;
20095;SDS011;10207;50.942;6.900;2023-02-10T08:17:24;66.17;;;30.03;;
20095;SDS011;10207;50.942;6.900;2023-02-10T08:19:50;61.40;;;25.83;;
20095;SDS011;10207;50.942;6.900;2023-02-10T08:22:16;64.43;;;28.60;;
20095;SDS011;10207;50.942;6.900;2023-02-10T08:24:42;60.50;;;26.30;;
20095;SDS011;10207;50.942;6.900;2023-02-10T08:27:07;62.57;;;28.30;;
20095;SDS011;10207;50.942;6.900;2023-02-10T08:29:34;69.83;;;29.07;;
20095;SDS011;10207;50.942;6.900;2023-02-10T08:31:59;67.30;;;28.30;;
20095;SDS011;10207;50.942;6.900;2023-02-10T08:34:27;60.40;;;29.37;;
20095;SDS011;10207;50.942;6.900;2023-02-10T08:36:53;63.60;;;28.73;;
20095;SDS011;10207;50.942;6.900;2023-02-10T08:39:19;63.50;;;28.27;;
20095;SDS011;10207;50.942;6.900;2023-02-10T08:41:45;59.47;;;28.00;;
20095;SDS011;10207;50.942;6.900;2023-02-10T08:44:11;64.20;;;27.30;;
20095;SDS011;10207;50.942;6.900;2023-02-10T08:46:37;56.23;;;27.47;;
20095;SDS011;10207;50.942;6.900;2023-02-10T08:49:04;55.83;;;27.02;;
20095;SDS011;10207;50.942;6.900;2023-02-10T08:51:29;57.25;;;25.10;;
20095;SDS011;10207;50.942;6.900;2023-02-10T08:54:01;57.17;;;26.65;;
20095;SDS011;10207;50.942;6.900;2023-02-10T08:56:27;47.35;;;24.23;;
20095;SDS011;10207;50.942;6.900;2023-02-10T08:58:53;50.90;;;26.30;;
20095;SDS011;10207;50.942;6.900;2023-02-10T09:01:19;56.65;;;25.20;;
20095;SDS011;10207;50.942;6.900;2023-02-10T09:03:46;53.85;;;26.08;;
20095;SDS011;10207;50.942;6.900;2023-02-10T09:06:16;56.70;;;26.10;;
20095;SDS011;10207;50.942;6.900;2023-02-10T09:08:43;55.88;;;26.63;;
20095;SDS011;10207;50.942;6.900;2023-02-10T09:11:09;55.13;;;26.92;;
20095;SDS011;10207;50.942;6.900;2023-02-10T09:13:35;56.37;;;24.93;;
20095;SDS011;10207;50.942;6.900;2023-02-10T09:16:02;61.72;;;25.42;;
20095;SDS011;10207;50.942;6.900;2023-02-10T09:18:27;58.63;;;25.98;;
20095;SDS011;10207;50.942;6.900;2023-02-10T09:20:53;47.95;;;22.65;;
20095;SDS011;10207;50.942;6.900;2023-02-10T09:23:22;53.63;;;26.70;;
20095;SDS011;10207;50.942;6.900;2023-02-10T09:25:54;48.05;;;24.10;;
20095;SDS011;10207;50.942;6.900;2023-02-10T09:28:20;49.05;;;22.27;;
20095;SDS011;10207;50.942;6.900;2023-02-10T09:30:47;46.50;;;22.33;;
20095;SDS011;10207;50.942;6.900;2023-02-10T09:33:13;52.50;;;22.38;;
20095;SDS011;10207;50.942;6.900;2023-02-10T09:35:39;45.80;;;20.88;;
20095;SDS011;10207;50.942;6.900;2023-02-10T09:38:06;41.78;;;21.02;;
20095;SDS011;10207;50.942;6.900;2023-02-10T09:40:34;38.50;;;20.52;;
20095;SDS011;10207;50.942;6.900;2023-02-10T09:45:31;33.03;;;18.48;;
20095;SDS011;10207;50.942;6.900;2023-02-10T09:48:00;39.55;;;20.38;;
20095;SDS011;10207;50.942;6.900;2023-02-10T09:53:24;39.60;;;18.70;;
20095;SDS011;10207;50.942;6.900;2023-02-10T09:55:55;36.10;;;18.27;;
20095;SDS011;10207;50.942;6.900;2023-02-10T09:58:35;37.13;;;19.17;;
20095;SDS011;10207;50.942;6.900;2023-02-10T10:01:14;37.60;;;19.83;;
20095;SDS011;10207;50.942;6.900;2023-02-10T10:03:52;36.97;;;19.63;;
20095;SDS011;10207;50.942;6.900;2023-02-10T10:06:21;37.88;;;18.10;;
20095;SDS011;10207;50.942;6.900;2023-02-10T10:11:35;30.95;;;17.85;;
20095;SDS011;10207;50.942;6.900;2023-02-10T10:14:02;37.65;;;17.17;;
20095;SDS011;10207;50.942;6.900;2023-02-10T10:19:37;28.67;;;18.25;;
20095;SDS011;10207;50.942;6.900;2023-02-10T10:34:40;33.35;;;18.85;;
20095;SDS011;10207;50.942;6.900;2023-02-10T10:37:15;31.55;;;17.33;;
20095;SDS011;10207;50.942;6.900;2023-02-10T10:39:43;33.47;;;19.50;;
20095;SDS011;10207;50.942;6.900;2023-02-10T10:42:23;38.83;;;20.95;;
20095;SDS011;10207;50.942;6.900;2023-02-10T10:44:52;35.90;;;19.33;;
20095;SDS011;10207;50.942;6.900;2023-02-10T10:49:49;32.30;;;19.10;;
20095;SDS011;10207;50.942;6.900;2023-02-10T10:52:19;36.22;;;19.88;;
20095;SDS011;10207;50.942;6.900;2023-02-10T10:54:49;33.83;;;19.63;;
20095;SDS011;10207;50.942;6.900;2023-02-10T10:57:15;34.42;;;18.38;;
20095;SDS011;10207;50.942;6.900;2023-02-10T10:59:43;33.25;;;20.00;;
20095;SDS011;10207;50.942;6.900;2023-02-10T11:04:37;41.42;;;20.17;;
20095;SDS011;10207;50.942;6.900;2023-02-10T11:07:08;34.42;;;18.83;;
20095;SDS011;10207;50.942;6.900;2023-02-10T11:09:36;36.65;;;19.38;;
20095;SDS011;10207;50.942;6.900;2023-02-10T11:12:04;33.15;;;18.25;;
20095;SDS011;10207;50.942;6.900;2023-02-10T11:14:36;35.35;;;19.88;;
20095;SDS011;10207;50.942;6.900;2023-02-10T11:17:03;32.45;;;19.52;;
20095;SDS011;10207;50.942;6.900;2023-02-10T11:19:31;35.95;;;19.77;;
20095;SDS011;10207;50.942;6.900;2023-02-10T11:21:58;34.65;;;19.48;;
20095;SDS011;10207;50.942;6.900;2023-02-10T11:24:28;31.85;;;18.55;;
20095;SDS011;10207;50.942;6.900;2023-02-10T11:26:56;35.95;;;19.25;;
20095;SDS011;10207;50.942;6.900;2023-02-10T11:29:22;34.95;;;19.15;;
20095;SDS011;10207;50.942;6.900;2023-02-10T11:31:50;34.30;;;18.63;;
20095;SDS011;10207;50.942;6.900;2023-02-10T11:34:19;40.38;;;19.40;;
20095;SDS011;10207;50.942;6.900;2023-02-10T11:36:46;35.55;;;18.80;;
20095;SDS011;10207;50.942;6.900;2023-02-10T11:39:18;35.03;;;19.20;;
20095;SDS011;10207;50.942;6.900;2023-02-10T11:41:46;35.30;;;19.48;;
20095;SDS011;10207;50.942;6.900;2023-02-10T11:44:20;34.70;;;18.90;;
20095;SDS011;10207;50.942;6.900;2023-02-10T11:46:54;37.72;;;20.05;;
20095;SDS011;10207;50.942;6.900;2023-02-10T11:49:20;34.33;;;17.67;;
20095;SDS011;10207;50.942;6.900;2023-02-10T11:51:52;30.98;;;17.40;;
20095;SDS011;10207;50.942;6.900;2023-02-10T11:54:19;33.00;;;17.63;;
20095;SDS011;10207;50.942;6.900;2023-02-10T12:02:18;37.00;;;19.00;;
20095;SDS011;10207;50.942;6.900;2023-02-10T12:05:01;38.70;;;19.90;;
20095;SDS011;10207;50.942;6.900;2023-02-10T12:07:41;35.00;;;20.08;;
20095;SDS011;10207;50.942;6.900;2023-02-10T12:36:12;29.30;;;16.88;;
20095;SDS011;10207;50.942;6.900;2023-02-10T12:57:06;22.33;;;13.05;;
20095;SDS011;10207;50.942;6.900;2023-02-10T12:59:35;22.38;;;11.65;;
20095;SDS011;10207;50.942;6.900;2023-02-10T13:02:11;26.50;;;12.65;;
20095;SDS011;10207;50.942;6.900;2023-02-10T13:04:44;26.25;;;13.15;;
20095;SDS011;10207;50.942;6.900;2023-02-10T13:12:41;31.52;;;13.93;;
20095;SDS011;10207;50.942;6.900;2023-02-10T13:15:16;24.90;;;13.35;;
20095;SDS011;10207;50.942;6.900;2023-02-10T13:17:44;21.05;;;13.15;;
20095;SDS011;10207;50.942;6.900;2023-02-10T13:23:04;19.25;;;11.82;;
20095;SDS011;10207;50.942;6.900;2023-02-10T13:35:51;25.10;;;14.18;;
20095;SDS011;10207;50.942;6.900;2023-02-10T13:38:18;27.90;;;13.80;;
20095;SDS011;10207;50.942;6.900;2023-02-10T13:40:55;21.70;;;13.88;;
20095;SDS011;10207;50.942;6.900;2023-02-10T13:43:40;32.40;;;14.18;;
20095;SDS011;10207;50.942;6.900;2023-02-10T13:46:14;28.63;;;14.02;;
20095;SDS011;10207;50.942;6.900;2023-02-10T13:48:44;24.63;;;13.07;;
20095;SDS011;10207;50.942;6.900;2023-02-10T13:51:10;26.13;;;12.85;;
20095;SDS011;10207;50.942;6.900;2023-02-10T13:53:38;21.70;;;12.45;;
20095;SDS011;10207;50.942;6.900;2023-02-10T13:59:00;24.42;;;12.52;;
20095;SDS011;10207;50.942;6.900;2023-02-10T14:03:56;20.73;;;12.80;;
20095;SDS011;10207;50.942;6.900;2023-02-10T14:06:31;25.15;;;12.32;;
20095;SDS011;10207;50.942;6.900;2023-02-10T14:09:02;19.10;;;11.85;;
20095;SDS011;10207;50.942;6.900;2023-02-10T14:11:38;27.48;;;12.70;;
20095;SDS011;10207;50.942;6.900;2023-02-10T14:14:16;26.20;;;13.18;;
20095;SDS011;10207;50.942;6.900;2023-02-10T14:16:43;22.42;;;12.35;;
20095;SDS011;10207;50.942;6.900;2023-02-10T14:19:29;27.35;;;12.07;;
20095;SDS011;10207;50.942;6.900;2023-02-10T14:21:56;21.30;;;11.80;;
20095;SDS011;10207;50.942;6.900;2023-02-10T14:24:24;23.25;;;13.02;;
20095;SDS011;10207;50.942;6.900;2023-02-10T14:26:51;18.63;;;12.68;;
20095;SDS011;10207;50.942;6.900;2023-02-10T14:29:18;23.48;;;11.88;;
20095;SDS011;10207;50.942;6.900;2023-02-10T14:31:45;24.27;;;13.80;;
20095;SDS011;10207;50.942;6.900;2023-02-10T14:34:21;18.00;;;11.05;;
20095;SDS011;10207;50.942;6.900;2023-02-10T14:37:29;23.67;;;12.60;;
20095;SDS011;10207;50.942;6.900;2023-02-10T14:39:36;23.85;;;12.18;;
20095;SDS011;10207;50.942;6.900;2023-02-10T14:42:03;20.67;;;11.90;;
20095;SDS011;10207;50.942;6.900;2023-02-10T14:44:34;19.27;;;11.57;;
20095;SDS011;10207;50.942;6.900;2023-02-10T14:47:00;17.88;;;11.27;;
20095;SDS011;10207;50.942;6.900;2023-02-10T14:49:27;22.63;;;12.02;;
20095;SDS011;10207;50.942;6.900;2023-02-10T14:51:53;18.20;;;11.05;;
20095;SDS011;10207;50.942;6.900;2023-02-10T14:54:21;20.13;;;11.95;;
20095;SDS011;10207;50.942;6.900;2023-02-10T14:56:53;17.05;;;9.63;;
20095;SDS011;10207;50.942;6.900;2023-02-10T14:59:24;17.15;;;11.15;;
20095;SDS011;10207;50.942;6.900;2023-02-10T15:01:52;18.27;;;11.00;;
20095;SDS011;10207;50.942;6.900;2023-02-10T15:04:18;21.58;;;10.90;;
20095;SDS011;10207;50.942;6.900;2023-02-10T15:06:45;20.17;;;11.15;;
20095;SDS011;10207;50.942;6.900;2023-02-10T15:09:18;18.20;;;9.85;;
20095;SDS011;10207;50.942;6.900;2023-02-10T15:11:46;20.02;;;11.07;;
20095;SDS011;10207;50.942;6.900;2023-02-10T15:14:33;18.10;;;10.48;;
20095;SDS011;10207;50.942;6.900;2023-02-10T15:17:00;21.63;;;10.55;;
20095;SDS011;10207;50.942;6.900;2023-02-10T15:19:28;21.73;;;11.63;;
20095;SDS011;10207;50.942;6.900;2023-02-10T15:21:54;23.58;;;11.57;;
20095;SDS011;10207;50.942;6.900;2023-02-10T15:26:46;20.85;;;10.82;;
20095;SDS011;10207;50.942;6.900;2023-02-10T15:29:12;21.15;;;11.15;;
20095;SDS011;10207;50.942;6.900;2023-02-10T15:31:39;21.50;;;11.60;;
20095;SDS011;10207;50.942;6.900;2023-02-10T15:34:44;18.95;;;10.63;;
20095;SDS011;10207;50.942;6.900;2023-02-10T15:37:04;18.23;;;10.63;;
20095;SDS011;10207;50.942;6.900;2023-02-10T15:39:31;20.00;;;11.85;;
20095;SDS011;10207;50.942;6.900;2023-02-10T15:42:00;19.98;;;10.65;;
20095;SDS011;10207;50.942;6.900;2023-02-10T15:44:31;19.20;;;10.32;;
20095;SDS011;10207;50.942;6.900;2023-02-10T15:50:01;21.33;;;11.13;;
20095;SDS011;10207;50.942;6.900;2023-02-10T15:52:28;19.63;;;10.63;;
20095;SDS011;10207;50.942;6.900;2023-02-10T15:54:56;21.48;;;10.90;;
20095;SDS011;10207;50.942;6.900;2023-02-10T15:57:23;18.83;;;9.43;;
20095;SDS011;10207;50.942;6.900;2023-02-10T15:59:49;19.30;;;11.30;;
20095;SDS011;10207;50.942;6.900;2023-02-10T16:02:17;22.35;;;11.80;;
20095;SDS011;10207;50.942;6.900;2023-02-10T16:04:43;22.85;;;11.45;;
20095;SDS011;10207;50.942;6.900;2023-02-10T16:07:13;19.70;;;10.27;;
20095;SDS011;10207;50.942;6.900;2023-02-10T16:09:40;24.30;;;10.73;;
20095;SDS011;10207;50.942;6.900;2023-02-10T16:12:05;21.52;;;11.57;;
20095;SDS011;10207;50.942;6.900;2023-02-10T16:14:31;22.05;;;11.93;;
20095;SDS011;10207;50.942;6.900;2023-02-10T16:16:58;23.30;;;11.43;;
20095;SDS011;10207;50.942;6.900;2023-02-10T16:19:26;18.95;;;11.43;;
20095;SDS011;10207;50.942;6.900;2023-02-10T16:21:52;21.77;;;11.50;;
20095;SDS011;10207;50.942;6.900;2023-02-10T16:24:22;22.17;;;11.30;;
20095;SDS011;10207;50.942;6.900;2023-02-10T16:26:48;28.60;;;11.57;;
20095;SDS011;10207;50.942;6.900;2023-02-10T16:29:15;18.30;;;11.55;;
20095;SDS011;10207;50.942;6.900;2023-02-10T16:31:41;19.73;;;10.93;;
20095;SDS011;10207;50.942;6.900;2023-02-10T16:34:08;28.85;;;11.57;;
20095;SDS011;10207;50.942;6.900;2023-02-10T16:36:34;21.23;;;12.63;;
20095;SDS011;10207;50.942;6.900;2023-02-10T16:39:00;23.38;;;11.05;;